Time;durP1;ratioP1;P1;durP2;ratioP2;P2;SDS_P1;SDS_P2;PMS_P1;PMS_P2;Temp;Humidity;BMP_temperature;BMP_pressure;BME280_temperature;BME280_humidity;BME280_pressure;Samples;Min_cycle;Max_cycle;Signal;HPM_P1;HPM_P2
2024/01/22 00:02:27;;;;;;;5.10;1.42;;;;;;;8.56;97.96;100410.09;8309520;28;20044;-56
2024/01/22 00:06:28;;;;;;;3.35;1.30;;;;;;;8.45;96.85;100413.72;8307163;28;20044;-56
2024/01/22 00:10:28;;;;;;;2.17;1.30;;;;;;;8.35;98.15;100417.34;8292043;28;20503;-56
2024/01/22 00:14:31;;;;;;;3.58;1.58;;;;;;;8.45;98.20;100399.41;8275200;28;20489;-57
2024/01/22 00:18:31;;;;;;;5.70;1.52;;;;;;;8.54;97.66;100393.25;8277004;28;20034;-56
2024/01/22 00:22:32;;;;;;;3.03;1.73;;;;;;;8.65;96.90;100377.00;8276651;28;20128;-55
2024/01/22 00:26:32;;;;;;;2.78;1.30;;;;;;;8.66;96.86;100373.34;8275543;28;20030;-56
2024/01/22 00:30:33;;;;;;;3.80;1.80;;;;;;;8.45;96.69;100385.94;8304545;28;20045;-56
2024/01/22 00:34:33;;;;;;;5.38;1.98;;;;;;;8.28;98.25;100367.66;8308167;28;20053;-55
2024/01/22 00:38:33;;;;;;;8.35;2.33;;;;;;;8.28;99.92;100352.34;8307842;28;20037;-55
2024/01/22 00:42:34;;;;;;;3.75;1.50;;;;;;;8.39;98.85;100346.06;8306987;28;20101;-55
2024/01/22 00:46:34;;;;;;;4.85;1.67;;;;;;;8.40;99.74;100331.59;8305243;28;20044;-55
2024/01/22 00:50:35;;;;;;;2.70;1.42;;;;;;;8.28;99.92;100324.56;8321067;28;20092;-55
2024/01/22 00:54:35;;;;;;;3.15;1.13;;;;;;;8.29;100.00;100312.81;8311976;28;20467;-55
2024/01/22 00:58:36;;;;;;;1.92;1.45;;;;;;;8.39;100.00;100305.66;8312503;28;20450;-56
2024/01/22 01:02:37;;;;;;;4.30;1.40;;;;;;;8.59;100.00;100285.91;8313968;28;20057;-56
2024/01/22 01:06:37;;;;;;;2.10;1.35;;;;;;;8.44;98.88;100266.56;8315633;28;20045;-56
2024/01/22 01:10:37;;;;;;;1.80;1.30;;;;;;;8.50;99.26;100275.94;8307961;28;20038;-57
2024/01/22 01:14:38;;;;;;;5.30;1.63;;;;;;;8.64;98.79;100252.19;8313301;28;20096;-56
2024/01/22 01:18:38;;;;;;;4.70;1.55;;;;;;;8.69;97.63;100223.00;8310611;28;20044;-57
2024/01/22 01:22:39;;;;;;;1.50;1.20;;;;;;;8.52;97.94;100203.91;8305974;28;20044;-56
2024/01/22 01:26:41;;;;;;;2.95;1.23;;;;;;;8.63;97.49;100176.91;8312192;28;20034;-56
2024/01/22 01:30:41;;;;;;;2.38;1.25;;;;;;;8.73;98.13;100153.50;8334362;28;20084;-56
2024/01/22 01:34:42;;;;;;;2.67;1.10;;;;;;;8.95;97.76;100158.66;8308657;28;20048;-56
2024/01/22 01:38:42;;;;;;;1.60;1.00;;;;;;;8.88;96.52;100195.25;8311774;28;20511;-56
2024/01/22 01:42:43;;;;;;;4.40;1.10;;;;;;;8.76;99.09;100185.59;8317774;28;20033;-55
2024/01/22 01:46:44;;;;;;;1.77;1.17;;;;;;;8.79;98.81;100188.00;8310460;28;20052;-56
2024/01/22 01:50:47;;;;;;;5.32;1.50;;;;;;;8.95;98.26;100164.06;8311776;28;20495;-56
2024/01/22 01:54:51;;;;;;;1.67;1.33;;;;;;;8.96;97.18;100163.06;8310579;28;20065;-56
2024/01/22 01:58:51;;;;;;;2.25;1.05;;;;;;;9.11;97.21;100150.88;8311118;28;20061;-58
2024/01/22 02:02:52;;;;;;;5.18;1.20;;;;;;;9.12;96.60;100117.56;8309961;28;20440;-55
2024/01/22 02:06:52;;;;;;;1.83;0.90;;;;;;;9.16;95.96;100108.16;8310287;28;20038;-55
2024/01/22 02:10:53;;;;;;;0.93;0.73;;;;;;;9.26;96.16;100091.00;8311037;28;20041;-54
2024/01/22 02:14:53;;;;;;;3.97;1.05;;;;;;;9.39;95.81;100093.38;8312812;28;20124;-54
2024/01/22 02:18:53;;;;;;;2.92;0.90;;;;;;;9.33;94.41;100116.41;8310029;28;20045;-55
2024/01/22 02:22:54;;;;;;;2.05;1.02;;;;;;;9.31;96.07;100139.13;8309251;28;20042;-56
2024/01/22 02:26:54;;;;;;;2.30;1.00;;;;;;;9.38;96.44;100178.88;8309748;28;20621;-57
2024/01/22 02:30:55;;;;;;;4.10;1.20;;;;;;;9.51;96.02;100178.59;8312847;28;20048;-54
2024/01/22 02:34:55;;;;;;;1.30;0.90;;;;;;;9.52;95.97;100147.94;8309599;28;20040;-56
2024/01/22 02:38:56;;;;;;;3.90;0.90;;;;;;;9.58;96.69;100104.19;8307902;28;20076;-54
2024/01/22 02:42:56;;;;;;;1.83;0.80;;;;;;;9.71;95.02;100061.53;8307792;28;20071;-54
2024/01/22 02:46:56;;;;;;;0.85;0.82;;;;;;;9.78;94.74;100033.81;8309841;28;20087;-55
2024/01/22 02:50:57;;;;;;;3.00;1.10;;;;;;;9.87;94.50;100034.75;8310317;28;20503;-55
2024/01/22 02:54:57;;;;;;;2.10;0.70;;;;;;;9.59;94.87;100035.72;8340672;28;20410;-54
2024/01/22 02:58:58;;;;;;;2.70;0.98;;;;;;;9.64;96.77;100030.75;8308669;28;20050;-57
2024/01/22 03:02:58;;;;;;;2.08;0.90;;;;;;;9.66;96.93;100015.22;8308868;28;20037;-59
2024/01/22 03:06:59;;;;;;;3.10;0.98;;;;;;;9.51;97.77;100022.09;8314465;28;20096;-58
2024/01/22 03:11:00;;;;;;;3.78;0.70;;;;;;;9.63;98.28;100010.13;8307605;28;20444;-57
2024/01/22 03:15:00;;;;;;;1.75;0.73;;;;;;;9.55;98.28;100024.34;8308443;28;20127;-58
2024/01/22 03:19:01;;;;;;;2.10;0.90;;;;;;;9.54;100.00;100027.19;8308587;28;20045;-57
2024/01/22 03:23:01;;;;;;;1.00;0.70;;;;;;;9.72;99.37;100038.94;8310944;28;20058;-56
2024/01/22 03:27:02;;;;;;;2.50;0.60;;;;;;;9.89;98.59;100032.78;8309361;28;20412;-57
2024/01/22 03:31:02;;;;;;;0.43;0.40;;;;;;;9.90;97.97;100035.31;8309163;28;20037;-57
2024/01/22 03:35:03;;;;;;;0.60;0.40;;;;;;;10.03;97.67;100040.38;8306774;28;20045;-56
2024/01/22 03:39:04;;;;;;;1.10;0.50;;;;;;;10.17;97.34;100053.44;8311189;28;20046;-57
2024/01/22 03:43:04;;;;;;;2.33;0.60;;;;;;;10.27;96.64;100038.03;8307132;28;20037;-56
2024/01/22 03:47:05;;;;;;;1.00;0.50;;;;;;;10.29;96.67;100030.63;8307797;28;20038;-57
2024/01/22 03:51:06;;;;;;;2.10;0.70;;;;;;;10.47;96.62;100015.31;8307326;28;20037;-56
2024/01/22 03:55:09;;;;;;;0.43;0.43;;;;;;;10.58;95.49;100008.84;8310579;28;20030;-56
2024/01/22 03:59:10;;;;;;;1.08;0.52;;;;;;;10.51;95.65;99986.97;8308039;28;20454;-57
2024/01/22 04:03:10;;;;;;;0.82;0.68;;;;;;;10.64;95.36;100003.63;8307795;28;20049;-57
2024/01/22 04:07:10;;;;;;;1.77;0.50;;;;;;;10.79;94.52;99985.03;8308105;28;20064;-57
2024/01/22 04:11:11;;;;;;;0.60;0.30;;;;;;;10.74;95.62;99966.56;8307298;28;20404;-57
2024/01/22 04:15:13;;;;;;;1.10;0.50;;;;;;;10.70;97.26;99965.19;8308183;28;20045;-57
2024/01/22 04:19:13;;;;;;;1.10;0.60;;;;;;;10.70;98.56;99943.56;8305675;28;20072;-59
2024/01/22 04:23:14;;;;;;;1.33;0.50;;;;;;;10.43;100.00;99943.63;8314308;28;20121;-57
2024/01/22 04:27:14;;;;;;;2.40;0.45;;;;;;;10.23;100.00;99928.56;8319123;28;20042;-56
2024/01/22 04:31:15;;;;;;;0.88;0.60;;;;;;;10.33;100.00;99944.69;8313029;28;20040;-56
2024/01/22 04:35:15;;;;;;;1.27;0.70;;;;;;;10.36;100.00;99934.44;8311922;28;20033;-57
2024/01/22 04:39:16;;;;;;;2.05;0.50;;;;;;;10.21;100.00;99924.34;8313113;28;20068;-58
2024/01/22 04:43:16;;;;;;;1.92;0.60;;;;;;;10.11;100.00;99918.97;8315443;28;20040;-56
2024/01/22 04:47:17;;;;;;;0.45;0.40;;;;;;;10.11;100.00;99918.13;8312846;28;20049;-56
2024/01/22 04:51:18;;;;;;;1.10;0.60;;;;;;;10.28;100.00;99909.22;8312324;28;20052;-56
2024/01/22 04:55:19;;;;;;;1.23;0.40;;;;;;;10.30;100.00;99891.81;8312658;28;20107;-56
2024/01/22 04:59:20;;;;;;;1.52;0.50;;;;;;;10.23;100.00;99893.47;8318476;28;20041;-56
2024/01/22 05:03:20;;;;;;;1.00;0.52;;;;;;;10.22;100.00;99905.28;8306088;28;20042;-56
2024/01/22 05:07:21;;;;;;;2.00;0.60;;;;;;;10.29;100.00;99887.44;8320419;28;20029;-56
2024/01/22 05:11:22;;;;;;;0.63;0.40;;;;;;;10.41;100.00;99894.31;8308513;28;20037;-55
2024/01/22 05:15:22;;;;;;;1.10;0.30;;;;;;;10.45;100.00;99881.31;8283360;28;20034;-55
2024/01/22 05:19:23;;;;;;;2.30;0.40;;;;;;;10.58;100.00;99885.31;8275671;28;20042;-56
2024/01/22 05:23:23;;;;;;;1.50;0.50;;;;;;;10.57;100.00;99883.63;8284783;28;20497;-56
2024/01/22 05:27:24;;;;;;;0.98;0.40;;;;;;;10.71;100.00;99899.31;8277591;28;20041;-58
2024/01/22 05:31:25;;;;;;;0.30;0.30;;;;;;;10.75;100.00;99894.41;8275782;28;20050;-55
2024/01/22 05:35:25;;;;;;;0.35;0.35;;;;;;;10.84;100.00;99880.81;8278288;28;20044;-57
2024/01/22 05:39:27;;;;;;;0.82;0.30;;;;;;;10.87;100.00;99891.31;8309322;28;20048;-55
2024/01/22 05:43:28;;;;;;;0.20;0.20;;;;;;;10.88;100.00;99887.59;8310828;28;20514;-56
2024/01/22 05:47:28;;;;;;;0.60;0.20;;;;;;;11.14;100.00;99861.41;8317611;28;20088;-56
2024/01/22 05:51:29;;;;;;;0.50;0.17;;;;;;;11.10;99.50;99886.25;8309213;28;20065;-57
2024/01/22 05:55:29;;;;;;;0.20;0.20;;;;;;;11.31;98.07;99889.38;8320067;28;20041;-56
2024/01/22 05:59:29;;;;;;;0.98;0.35;;;;;;;11.39;96.85;99881.31;8316321;28;20385;-57
2024/01/22 06:03:30;;;;;;;1.27;0.20;;;;;;;11.34;97.29;99878.25;8320968;28;20057;-56
2024/01/22 06:07:30;;;;;;;1.17;0.30;;;;;;;11.33;97.54;99888.25;8318707;28;20037;-57
2024/01/22 06:11:31;;;;;;;0.73;0.20;;;;;;;11.32;97.95;99896.53;8322103;28;20525;-56
2024/01/22 06:15:35;;;;;;;1.40;0.20;;;;;;;11.40;97.47;99873.03;8323239;28;20116;-56
2024/01/22 06:19:36;;;;;;;0.85;0.30;;;;;;;11.45;97.59;99870.72;8322650;28;20042;-57
2024/01/22 06:23:36;;;;;;;0.30;0.20;;;;;;;11.63;97.82;99879.63;8323614;28;20076;-56
2024/01/22 06:27:37;;;;;;;0.98;0.20;;;;;;;11.63;96.85;99863.38;8326529;28;20045;-56
2024/01/22 06:31:38;;;;;;;1.95;0.25;;;;;;;11.60;96.78;99890.75;8321509;28;20046;-56
2024/01/22 06:35:38;;;;;;;0.10;0.10;;;;;;;11.65;96.97;99893.84;8315446;28;20037;-57
2024/01/22 06:39:39;;;;;;;0.47;0.20;;;;;;;11.74;97.69;99882.03;8310209;28;20567;-57
2024/01/22 06:43:39;;;;;;;0.20;0.20;;;;;;;11.88;96.02;99857.03;8275748;28;20041;-57
2024/01/22 06:47:40;;;;;;;1.83;0.25;;;;;;;11.93;95.68;99848.41;8288052;28;20042;-57
2024/01/22 06:51:40;;;;;;;1.23;0.30;;;;;;;12.03;94.77;99859.94;8277142;28;20069;-57
2024/01/22 06:55:41;;;;;;;0.30;0.30;;;;;;;12.04;96.02;99829.13;8275265;28;20038;-57
2024/01/22 06:59:41;;;;;;;0.20;0.15;;;;;;;12.02;95.22;99851.97;8277871;28;20117;-56
2024/01/22 07:03:42;;;;;;;0.80;0.32;;;;;;;12.06;95.26;99865.03;8278466;28;20413;-56
2024/01/22 07:07:42;;;;;;;0.50;0.30;;;;;;;11.86;96.35;99853.63;8276930;28;20049;-57
2024/01/22 07:11:43;;;;;;;0.60;0.50;;;;;;;11.91;97.30;99866.69;8283503;28;20552;-57
2024/01/22 07:15:44;;;;;;;0.20;0.20;;;;;;;12.03;96.72;99870.78;8307643;28;20446;-58
2024/01/22 07:19:44;;;;;;;0.40;0.20;;;;;;;12.05;95.75;99867.91;8307365;28;20041;-58
2024/01/22 07:23:45;;;;;;;1.70;0.30;;;;;;;11.98;96.45;99872.31;8306096;28;20041;-59
2024/01/22 07:27:46;;;;;;;0.35;0.30;;;;;;;11.83;96.58;99875.63;8295281;28;20587;-57
2024/01/22 07:31:46;;;;;;;0.68;0.20;;;;;;;11.84;97.29;99890.84;8301369;28;20408;-58
2024/01/22 07:35:47;;;;;;;0.22;0.22;;;;;;;11.90;97.63;99892.91;8305962;28;20169;-56
2024/01/22 07:39:47;;;;;;;0.38;0.25;;;;;;;11.86;98.47;99901.53;8305743;28;20048;-57
2024/01/22 07:43:48;;;;;;;1.02;0.20;;;;;;;11.81;98.68;99910.13;8304795;28;20563;-56
2024/01/22 07:47:49;;;;;;;2.03;0.20;;;;;;;11.88;98.29;99897.66;8305741;28;20171;-56
2024/01/22 07:51:49;;;;;;;0.20;0.20;;;;;;;11.87;98.36;99903.25;8303709;28;20046;-57
2024/01/22 07:55:49;;;;;;;0.70;0.20;;;;;;;11.97;98.27;99913.94;8311940;28;20094;-58
2024/01/22 07:59:50;;;;;;;0.75;0.35;;;;;;;11.71;99.35;99936.50;8312798;28;20069;-56
2024/01/22 08:03:50;;;;;;;0.32;0.20;;;;;;;11.84;99.55;99917.94;8301177;28;20042;-57
2024/01/22 08:07:51;;;;;;;2.70;1.48;;;;;;;11.73;99.17;99926.38;8331504;28;20041;-57
2024/01/22 08:11:51;;;;;;;26.95;10.88;;;;;;;12.02;97.27;99917.84;8315202;28;20073;-56
2024/01/22 08:15:51;;;;;;;29.98;13.27;;;;;;;12.24;96.19;99935.34;8298455;28;20111;-56
2024/01/22 08:19:52;;;;;;;8.00;4.57;;;;;;;12.35;97.16;99935.06;8300833;28;20053;-55
2024/01/22 08:23:54;;;;;;;3.15;1.75;;;;;;;12.46;97.72;99896.75;8295732;28;20045;-55
2024/01/22 08:27:55;;;;;;;29.67;13.35;;;;;;;12.30;98.23;99899.47;8300652;28;20049;-55
2024/01/22 08:31:55;;;;;;;9.85;4.80;;;;;;;12.24;98.86;99910.97;8303920;28;20049;-56
2024/01/22 08:35:57;;;;;;;17.23;7.25;;;;;;;12.33;96.88;99904.53;8300940;28;20065;-57
2024/01/22 08:39:57;;;;;;;9.57;5.03;;;;;;;12.41;95.61;99904.56;8303606;28;20522;-56
2024/01/22 08:44:00;;;;;;;6.20;2.50;;;;;;;12.52;94.10;99896.09;8302776;28;20480;-56
2024/01/22 08:48:00;;;;;;;4.43;1.83;;;;;;;12.60;92.54;99886.09;8306501;28;20083;-56
2024/01/22 08:52:01;;;;;;;4.85;2.05;;;;;;;12.79;90.39;99895.78;8303105;28;20048;-57
2024/01/22 08:56:01;;;;;;;3.70;1.17;;;;;;;12.96;88.99;99883.91;8307023;28;20064;-57
2024/01/22 09:00:06;;;;;;;8.32;1.50;;;;;;;12.94;88.53;99872.38;8311458;28;20571;-56
2024/01/22 09:04:07;;;;;;;5.40;1.00;;;;;;;13.10;87.07;99877.78;8318925;28;20045;-57
2024/01/22 09:08:07;;;;;;;6.95;0.98;;;;;;;13.15;86.85;99870.81;8315620;28;20492;-57
2024/01/22 09:12:08;;;;;;;5.22;0.90;;;;;;;13.34;85.58;99870.47;8309683;28;20475;-57
2024/01/22 09:16:13;;;;;;;8.45;3.20;;;;;;;13.60;84.38;99881.03;8316740;28;20033;-57
2024/01/22 09:20:15;;;;;;;6.30;0.90;;;;;;;13.70;83.86;99887.16;8322852;28;20038;-58
2024/01/22 09:24:17;;;;;;;8.85;1.60;;;;;;;13.80;83.57;99879.63;8321372;28;20121;-54
2024/01/22 09:28:19;;;;;;;9.73;1.30;;;;;;;13.93;82.68;99893.47;8315120;28;20033;-56
2024/01/22 09:32:20;;;;;;;8.07;1.05;;;;;;;14.46;81.52;99890.84;8311053;28;20438;-56
2024/01/22 09:36:23;;;;;;;8.63;1.25;;;;;;;15.47;77.45;99882.09;8313985;28;20095;-55
2024/01/22 09:40:30;;;;;;;3.78;1.08;;;;;;;15.78;75.14;99895.53;8307768;28;20045;-56
2024/01/22 09:44:31;;;;;;;7.70;1.73;;;;;;;14.92;77.72;99906.13;8307275;28;20087;-56
2024/01/22 09:48:35;;;;;;;3.78;0.85;;;;;;;14.58;78.85;99905.69;8311105;28;20057;-56
2024/01/22 09:52:42;;;;;;;6.28;1.20;;;;;;;14.37;79.74;99894.63;8311380;28;20033;-56
2024/01/22 09:56:49;;;;;;;4.15;1.17;;;;;;;14.17;80.41;99896.06;8321047;28;20048;-56
2024/01/22 10:00:51;;;;;;;6.07;0.90;;;;;;;14.21;81.04;99875.66;8322566;28;20133;-56
2024/01/22 10:04:53;;;;;;;3.35;0.77;;;;;;;14.20;80.94;99900.28;8321928;28;20241;-57
2024/01/22 10:08:57;;;;;;;4.00;0.70;;;;;;;14.21;81.24;99899.28;8312753;28;20041;-56
2024/01/22 10:13:04;;;;;;;0.75;0.32;;;;;;;14.24;82.12;99897.06;8306216;28;20044;-58
2024/01/22 10:17:21;;;;;;;1.40;0.30;;;;;;;14.05;83.81;99892.06;8305302;28;20127;-59
2024/01/22 10:21:22;;;;;;;4.40;0.43;;;;;;;13.69;85.97;99901.72;8308475;28;20389;-58
2024/01/22 10:25:23;;;;;;;0.77;0.60;;;;;;;13.48;87.42;99861.56;8309857;28;20037;-57
2024/01/22 10:29:28;;;;;;;0.65;0.40;;;;;;;13.28;89.01;99890.16;8322622;28;20068;-58
2024/01/22 10:33:29;;;;;;;2.47;0.80;;;;;;;13.13;90.23;99901.88;8321963;28;20088;-57
2024/01/22 10:37:30;;;;;;;0.65;0.20;;;;;;;13.10;91.35;99886.78;8314490;28;20041;-58
2024/01/22 10:41:31;;;;;;;1.08;0.40;;;;;;;13.09;91.76;99897.81;8322070;28;20099;-57
2024/01/22 10:45:32;;;;;;;0.15;0.15;;;;;;;12.82;94.54;99887.28;8321706;28;20349;-58
2024/01/22 10:49:34;;;;;;;1.08;0.20;;;;;;;12.70;96.09;99902.22;8316539;28;20749;-59
2024/01/22 10:53:35;;;;;;;0.20;0.10;;;;;;;12.51;98.10;99880.84;8316294;28;20065;-59
2024/01/22 10:57:41;;;;;;;0.13;0.10;;;;;;;12.52;98.54;99882.53;8321431;28;20041;-58
2024/01/22 11:01:43;;;;;;;0.35;0.10;;;;;;;12.42;99.23;99892.69;8317894;28;20444;-59
2024/01/22 11:05:46;;;;;;;0.35;0.20;;;;;;;12.35;100.00;99883.56;8304895;28;20068;-58
2024/01/22 11:09:50;;;;;;;0.20;0.13;;;;;;;12.33;100.00;99877.44;8308801;28;20068;-58
2024/01/22 11:13:51;;;;;;;;;;;;;;;12.34;100.00;99890.81;8300979;28;20042;-55
2024/01/22 11:17:52;;;;;;;0.10;0.10;;;;;;;12.30;100.00;99877.78;8289850;28;20375;-58
2024/01/22 11:21:53;;;;;;;1.85;0.40;;;;;;;12.36;98.30;99863.56;8308957;28;20107;-57
2024/01/22 11:26:09;;;;;;;0.43;0.40;;;;;;;12.32;97.76;99871.16;8300615;28;20371;-57
2024/01/22 11:30:32;;;;;;;0.85;0.40;;;;;;;12.39;96.33;99876.78;8273938;28;20038;-58
2024/01/22 11:34:44;;;;;;;0.35;0.28;;;;;;;12.39;95.97;99865.94;8275236;28;20044;-57
2024/01/22 11:38:50;;;;;;;2.55;1.83;;;;;;;12.42;95.59;99866.44;8303971;28;20503;-59
2024/01/22 11:42:50;;;;;;;2.42;0.75;;;;;;;12.56;94.28;99851.38;8316195;28;20041;-58
2024/01/22 11:47:03;;;;;;;3.45;0.65;;;;;;;12.97;90.52;99872.88;8319899;28;20353;-59
2024/01/22 11:51:04;;;;;;;6.30;1.25;;;;;;;13.10;89.86;99856.09;8318440;28;21069;-58
2024/01/22 11:55:07;;;;;;;6.05;1.38;;;;;;;13.11;90.21;99874.06;8319431;28;20037;-59
2024/01/22 11:59:07;;;;;;;9.68;1.25;;;;;;;13.19;90.17;99893.06;8320281;28;20121;-56
2024/01/22 12:03:10;;;;;;;6.82;1.20;;;;;;;13.27;89.54;99879.47;8318747;28;20029;-57
2024/01/22 12:07:11;;;;;;;3.78;0.73;;;;;;;13.44;88.33;99890.13;8315687;28;20037;-55
2024/01/22 12:11:13;;;;;;;4.70;0.73;;;;;;;13.49;88.03;99920.31;8311406;28;20057;-56
2024/01/22 12:15:14;;;;;;;5.10;0.75;;;;;;;13.49;88.46;99916.75;8305185;28;20033;-56
2024/01/22 12:19:14;;;;;;;4.70;0.77;;;;;;;13.32;89.28;99920.50;8299730;28;20179;-55
2024/01/22 12:23:33;;;;;;;5.40;1.00;;;;;;;13.73;88.10;99911.25;8316318;28;20091;-55
2024/01/22 12:27:35;;;;;;;9.57;0.80;;;;;;;14.47;84.01;99914.28;8311047;28;20135;-58
2024/01/22 12:31:36;;;;;;;7.55;0.80;;;;;;;14.44;81.72;99898.31;8313175;28;20399;-56
2024/01/22 12:35:42;;;;;;;6.70;1.08;;;;;;;14.88;79.27;99906.66;8306524;28;20064;-58
2024/01/22 12:39:44;;;;;;;5.18;1.33;;;;;;;14.67;77.10;99914.66;8302951;28;20121;-57
2024/01/22 12:43:45;;;;;;;9.23;1.17;;;;;;;14.37;76.51;99913.69;8311970;28;20052;-58
2024/01/22 12:47:47;;;;;;;8.90;1.35;;;;;;;14.28;75.95;99931.06;8309462;28;20030;-58
2024/01/22 12:51:47;;;;;;;7.85;1.40;;;;;;;14.28;75.00;99936.50;8310309;28;20038;-57
2024/01/22 12:55:47;;;;;;;12.63;1.30;;;;;;;14.08;75.35;99943.34;8315017;28;20160;-59
2024/01/22 12:59:48;;;;;;;6.05;1.27;;;;;;;13.95;75.96;99953.94;8298216;28;20046;-59
2024/01/22 13:03:49;;;;;;;9.10;1.02;;;;;;;14.12;74.41;99947.41;8297837;28;20458;-58
2024/01/22 13:07:49;;;;;;;8.05;1.50;;;;;;;14.09;74.00;99972.22;8295302;28;20041;-60
2024/01/22 13:11:49;;;;;;;12.30;1.63;;;;;;;13.93;74.59;99968.75;8310172;28;20038;-59
2024/01/22 13:15:51;;;;;;;13.15;2.33;;;;;;;13.69;75.25;99978.66;8310032;28;20052;-56
2024/01/22 13:19:52;;;;;;;25.08;8.43;;;;;;;13.54;74.71;99985.81;8304428;28;20305;-57
2024/01/22 13:23:53;;;;;;;10.20;2.20;;;;;;;13.38;76.82;100028.41;8282316;28;20046;-56
2024/01/22 13:27:55;;;;;;;4.30;1.00;;;;;;;11.74;76.04;100044.50;8290737;28;20065;-59
2024/01/22 13:31:55;;;;;;;12.57;1.20;;;;;;;11.42;75.90;100049.66;8289491;28;20057;-58
2024/01/22 13:35:56;;;;;;;9.20;1.60;;;;;;;11.32;76.94;100048.06;8280309;28;20089;-58
2024/01/22 13:39:57;;;;;;;6.18;1.08;;;;;;;10.95;82.15;100053.63;8307996;28;20470;-56
2024/01/22 13:43:58;;;;;;;4.68;0.60;;;;;;;10.72;84.91;100030.78;8313610;28;20136;-58
2024/01/22 13:47:58;;;;;;;4.93;1.00;;;;;;;10.93;86.14;100025.91;8317885;28;20179;-58
2024/01/22 13:52:04;;;;;;;4.32;1.42;;;;;;;11.06;88.31;100026.38;8318900;28;20045;-56
2024/01/22 13:56:06;;;;;;;5.30;1.05;;;;;;;11.19;89.70;100044.91;8321671;28;20058;-57
2024/01/22 14:00:07;;;;;;;11.00;1.75;;;;;;;11.40;89.68;100040.84;8322008;28;20377;-59
2024/01/22 14:04:08;;;;;;;14.00;1.35;;;;;;;11.53;89.82;100035.88;8312363;28;20047;-57
2024/01/22 14:08:08;;;;;;;13.05;2.08;;;;;;;11.57;89.29;100037.28;8317591;28;20041;-59
2024/01/22 14:12:08;;;;;;;16.27;1.90;;;;;;;11.83;87.25;100054.38;8322869;28;20040;-58
2024/01/22 14:16:10;;;;;;;20.38;2.67;;;;;;;12.08;85.35;100051.81;8323031;28;20120;-56
2024/01/22 14:20:11;;;;;;;19.85;2.60;;;;;;;12.30;83.10;100062.09;8308628;28;20507;-58
2024/01/22 14:24:11;;;;;;;14.52;2.28;;;;;;;12.36;80.85;100058.72;8296697;28;20474;-58
2024/01/22 14:28:12;;;;;;;16.88;2.60;;;;;;;12.39;78.02;100067.38;8319145;28;20059;-57
2024/01/22 14:32:12;;;;;;;15.93;2.83;;;;;;;12.53;75.77;100065.91;8312135;28;20034;-56
2024/01/22 14:36:12;;;;;;;21.95;3.03;;;;;;;12.56;74.32;100074.56;8301706;28;20033;-57
2024/01/22 14:40:13;;;;;;;16.95;3.00;;;;;;;12.51;73.74;100076.06;8288513;28;20068;-56
2024/01/22 14:44:13;;;;;;;16.25;2.83;;;;;;;12.38;74.30;100086.53;8276267;28;20184;-56
2024/01/22 14:48:15;;;;;;;15.13;2.40;;;;;;;12.29;74.04;100066.63;8314182;28;20435;-57
2024/01/22 14:52:17;;;;;;;16.88;2.80;;;;;;;12.43;73.27;100062.47;8317391;28;20092;-57
2024/01/22 14:56:17;;;;;;;16.13;3.10;;;;;;;12.33;73.21;100065.31;8318067;28;20048;-59
2024/01/22 15:00:19;;;;;;;22.38;3.45;;;;;;;12.19;73.33;100070.47;8313425;28;20156;-58
2024/01/22 15:04:19;;;;;;;20.88;2.97;;;;;;;12.03;74.53;100078.53;8312852;28;20041;-57
2024/01/22 15:08:20;;;;;;;21.42;3.67;;;;;;;12.11;73.61;100079.44;8306514;28;20043;-58
2024/01/22 15:12:20;;;;;;;18.00;3.40;;;;;;;12.04;74.34;100088.38;8312391;28;20040;-58
2024/01/22 15:16:20;;;;;;;14.65;3.17;;;;;;;12.06;74.13;100087.19;8317604;28;20045;-56
2024/01/22 15:20:21;;;;;;;18.35;2.70;;;;;;;11.98;73.65;100094.44;8317663;28;20127;-56
2024/01/22 15:24:22;;;;;;;15.43;2.58;;;;;;;11.85;73.86;100098.41;8317979;28;20060;-56
2024/01/22 15:28:25;;;;;;;23.05;2.65;;;;;;;11.85;74.49;100090.28;8313190;28;20047;-58
2024/01/22 15:32:27;;;;;;;17.67;2.90;;;;;;;11.90;74.41;100101.47;8317846;28;20048;-58
2024/01/22 15:36:28;;;;;;;17.45;3.00;;;;;;;11.72;75.65;100102.56;8317425;28;20044;-57
2024/01/22 15:40:28;;;;;;;17.23;3.30;;;;;;;11.56;76.43;100122.19;8313754;28;20049;-57
2024/01/22 15:44:29;;;;;;;20.35;3.15;;;;;;;11.39;76.95;100120.34;8309561;28;20041;-56
2024/01/22 15:48:30;;;;;;;26.25;3.60;;;;;;;11.35;77.03;100135.19;8306337;28;20124;-57
2024/01/22 15:52:31;;;;;;;20.02;3.08;;;;;;;11.19;78.02;100137.72;8309560;28;20038;-55
2024/01/22 15:56:31;;;;;;;15.27;2.42;;;;;;;11.13;78.82;100143.75;8313242;28;20458;-56
2024/01/22 16:00:32;;;;;;;18.40;3.33;;;;;;;11.12;79.68;100139.38;8310520;28;20099;-57
2024/01/22 16:04:33;;;;;;;20.50;3.50;;;;;;;10.95;81.04;100161.81;8343133;28;20042;-57
2024/01/22 16:08:35;;;;;;;24.27;3.35;;;;;;;10.68;82.52;100172.66;8308375;28;20427;-56
2024/01/22 16:12:35;;;;;;;22.23;3.58;;;;;;;10.56;83.59;100183.81;8300142;28;20454;-55
2024/01/22 16:16:36;;;;;;;22.60;3.67;;;;;;;10.34;85.18;100179.59;8303365;28;20050;-56
2024/01/22 16:20:38;;;;;;;23.50;3.67;;;;;;;10.38;84.81;100186.44;8322730;28;20416;-57
2024/01/22 16:24:39;;;;;;;16.52;3.20;;;;;;;10.77;82.07;100195.25;8324114;28;20594;-57
2024/01/22 16:28:42;;;;;;;31.48;3.58;;;;;;;10.67;82.69;100187.16;8318188;28;20095;-57
2024/01/22 16:32:42;;;;;;;21.65;2.67;;;;;;;10.77;81.59;100198.78;8323387;28;20046;-56
2024/01/22 16:36:43;;;;;;;17.60;2.35;;;;;;;10.85;80.56;100212.41;8325408;28;20114;-57
2024/01/22 16:40:44;;;;;;;15.48;2.78;;;;;;;10.87;79.78;100234.75;8327649;28;20514;-57
2024/01/22 16:44:44;;;;;;;18.85;1.98;;;;;;;10.85;79.52;100254.81;8320529;28;20080;-58
2024/01/22 16:48:45;;;;;;;14.30;2.45;;;;;;;10.88;78.83;100255.38;8321128;28;20045;-57
2024/01/22 16:52:45;;;;;;;16.60;2.38;;;;;;;10.79;79.43;100280.59;8314015;28;20183;-56
2024/01/22 16:56:46;;;;;;;18.92;2.55;;;;;;;10.76;79.66;100280.91;8320484;28;20045;-57
2024/01/22 17:00:46;;;;;;;21.65;2.63;;;;;;;10.70;80.04;100297.72;8318039;28;20045;-57
2024/01/22 17:04:47;;;;;;;18.73;3.63;;;;;;;10.55;80.82;100303.75;8320353;28;20046;-57
2024/01/22 17:08:50;;;;;;;20.75;2.65;;;;;;;10.57;80.31;100326.06;8321746;28;20076;-57
2024/01/22 17:12:51;;;;;;;20.92;2.70;;;;;;;10.47;81.11;100336.91;8318455;28;20135;-57
2024/01/22 17:16:53;;;;;;;19.27;3.17;;;;;;;10.51;81.22;100343.72;8318081;28;20574;-56
2024/01/22 17:20:53;;;;;;;27.13;3.53;;;;;;;10.51;81.19;100343.72;8314858;28;20140;-58
2024/01/22 17:24:54;;;;;;;33.60;4.07;;;;;;;10.41;82.44;100351.00;8320801;28;20033;-58
2024/01/22 17:28:54;;;;;;;15.60;2.13;;;;;;;10.39;82.97;100377.28;8336221;28;20588;-56
2024/01/22 17:32:55;;;;;;;19.23;2.90;;;;;;;10.34;83.46;100384.97;8315691;28;20416;-60
2024/01/22 17:36:55;;;;;;;26.60;3.30;;;;;;;10.41;83.60;100402.34;8314793;28;20136;-58
2024/01/22 17:40:56;;;;;;;16.92;3.40;;;;;;;10.42;84.10;100431.06;8306406;28;20393;-58
2024/01/22 17:44:58;;;;;;;18.08;3.15;;;;;;;10.29;84.45;100424.22;8317057;28;20257;-57
2024/01/22 17:48:58;;;;;;;20.15;3.45;;;;;;;10.33;84.63;100434.59;8321754;28;20132;-57
2024/01/22 17:53:00;;;;;;;19.02;2.70;;;;;;;10.39;83.72;100447.56;8300895;28;20100;-57
2024/01/22 17:57:01;;;;;;;18.42;2.80;;;;;;;10.33;84.38;100458.94;8316256;28;20041;-55
2024/01/22 18:01:01;;;;;;;18.95;2.97;;;;;;;10.02;86.37;100455.44;8305907;28;20053;-58
2024/01/22 18:05:02;;;;;;;28.73;3.55;;;;;;;9.78;87.92;100460.34;8293357;28;20034;-60
2024/01/22 18:09:04;;;;;;;27.25;3.10;;;;;;;9.68;89.31;100461.28;8305008;28;20038;-59
2024/01/22 18:13:04;;;;;;;22.30;3.88;;;;;;;9.64;89.67;100466.09;8311663;28;20041;-56
2024/01/22 18:17:06;;;;;;;24.35;4.35;;;;;;;9.67;90.37;100470.38;8318021;28;20041;-55
2024/01/22 18:21:07;;;;;;;26.25;3.65;;;;;;;9.80;89.76;100484.50;8314831;28;20084;-57
2024/01/22 18:25:08;;;;;;;22.40;3.72;;;;;;;9.87;89.03;100475.72;8317860;28;20077;-57
2024/01/22 18:29:08;;;;;;;29.35;4.25;;;;;;;9.99;87.58;100481.84;8294474;28;20046;-57
2024/01/22 18:33:09;;;;;;;20.85;4.45;;;;;;;9.98;87.32;100490.97;8316715;28;20092;-56
2024/01/22 18:37:11;;;;;;;25.23;3.95;;;;;;;10.15;86.32;100498.41;8273391;28;20129;-57
2024/01/22 18:41:22;;;;;;;19.58;3.75;;;;;;;10.15;86.15;100500.28;8278601;28;20105;-58
2024/01/22 18:45:25;;;;;;;20.70;2.97;;;;;;;10.12;86.00;100506.78;8310536;28;20036;-59